createdAt,value
2022-09-02T00:01:41.702Z,16.53
2022-09-02T00:04:14.075Z,22.03
2022-09-02T00:06:43.920Z,18.83
2022-09-02T00:09:15.265Z,19.47
2022-09-02T00:11:46.906Z,18.63
2022-09-02T00:14:19.920Z,16.83
2022-09-02T00:16:52.463Z,20.13
2022-09-02T00:19:24.323Z,20.13
2022-09-02T00:21:54.614Z,17.03
2022-09-02T00:24:25.183Z,23.20
2022-09-02T00:26:56.820Z,14.03
2022-09-02T00:29:26.324Z,15.50
2022-09-02T00:31:55.761Z,17.47
2022-09-02T00:34:24.999Z,15.73
2022-09-02T00:36:54.097Z,15.63
2022-09-02T00:39:23.412Z,18.43
2022-09-02T00:41:52.708Z,17.40
2022-09-02T00:44:24.555Z,18.50
2022-09-02T00:46:53.389Z,14.57
2022-09-02T00:49:26.804Z,20.53
2022-09-02T00:52:00.489Z,20.93
2022-09-02T00:54:33.242Z,20.77
2022-09-02T00:57:04.770Z,22.83
2022-09-02T00:59:45.129Z,17.60
2022-09-02T01:02:14.829Z,14.43
2022-09-02T01:04:46.860Z,17.80
2022-09-02T01:07:16.570Z,21.17
2022-09-02T01:09:45.505Z,21.73
2022-09-02T01:12:15.152Z,14.47
2022-09-02T01:14:46.664Z,16.77
2022-09-02T01:17:17.330Z,16.20
2022-09-02T01:19:50.483Z,15.73
2022-09-02T01:22:23.932Z,13.50
2022-09-02T01:24:53.345Z,15.73
2022-09-02T01:27:24.233Z,15.20
2022-09-02T01:29:55.841Z,16.13
2022-09-02T01:32:25.405Z,21.97
2022-09-02T01:34:54.276Z,17.07
2022-09-02T01:37:25.003Z,15.20
2022-09-02T01:39:54.913Z,15.27
2022-09-02T01:42:24.460Z,12.70
2022-09-02T01:44:54.946Z,11.57
2022-09-02T01:47:26.707Z,15.30
2022-09-02T01:49:56.233Z,19.20
2022-09-02T01:52:29.512Z,14.87
2022-09-02T01:54:58.977Z,13.20
2022-09-02T01:57:27.892Z,10.70
2022-09-02T01:59:56.906Z,10.77
2022-09-02T02:02:26.436Z,10.23
2022-09-02T02:04:56.070Z,14.10
2022-09-02T02:07:27.728Z,10.63
2022-09-02T02:09:56.769Z,10.80
2022-09-02T02:12:26.507Z,11.90
2022-09-02T02:14:57.050Z,14.00
2022-09-02T02:17:26.044Z,14.83
2022-09-02T02:19:54.964Z,10.60
2022-09-02T02:22:23.795Z,12.27
2022-09-02T02:24:54.183Z,14.60
2022-09-02T02:27:23.173Z,12.10
2022-09-02T02:29:53.817Z,12.67
2022-09-02T02:32:26.332Z,16.60
2022-09-02T02:34:56.494Z,7.97
2022-09-02T02:37:25.712Z,12.63
2022-09-02T02:39:57.660Z,11.37
2022-09-02T02:42:29.308Z,11.40
2022-09-02T02:44:58.634Z,11.50
2022-09-02T02:47:27.907Z,14.03
2022-09-02T02:49:56.925Z,13.47
2022-09-02T02:52:25.823Z,9.63
2022-09-02T02:54:56.830Z,9.63
2022-09-02T02:57:25.769Z,13.07
2022-09-02T02:59:54.717Z,18.23
2022-09-02T03:02:24.165Z,11.87
2022-09-02T03:04:54.470Z,7.60
2022-09-02T03:07:24.610Z,12.50
2022-09-02T03:09:54.109Z,17.30
2022-09-02T03:12:25.096Z,10.67
2022-09-02T03:14:54.602Z,7.50
2022-09-02T03:17:23.808Z,10.73
2022-09-02T03:19:52.690Z,9.27
2022-09-02T03:22:22.101Z,11.83
2022-09-02T03:24:51.296Z,10.73
2022-09-02T03:27:20.306Z,10.70
2022-09-02T03:29:50.868Z,12.40
2022-09-02T03:32:19.908Z,13.63
2022-09-02T03:34:49.861Z,11.00
2022-09-02T03:37:19.137Z,12.93
2022-09-02T03:39:48.669Z,15.73
2022-09-02T03:42:19.768Z,10.73
2022-09-02T03:44:53.264Z,10.30
2022-09-02T03:47:24.398Z,12.83
2022-09-02T03:50:13.470Z,11.50
2022-09-02T03:52:42.389Z,13.47
2022-09-02T03:55:12.680Z,14.17
2022-09-02T03:57:42.184Z,13.03
2022-09-02T04:00:15.731Z,15.87
2022-09-02T04:02:50.113Z,10.47
2022-09-02T04:05:22.573Z,9.83
2022-09-02T04:07:54.135Z,12.50
2022-09-02T04:10:23.580Z,17.47
2022-09-02T04:12:53.764Z,14.60
2022-09-02T04:15:25.416Z,13.93
2022-09-02T04:17:54.805Z,16.70
2022-09-02T04:20:23.813Z,19.07
2022-09-02T04:22:53.200Z,15.50
2022-09-02T04:25:27.584Z,13.60
2022-09-02T04:27:57.483Z,18.80
2022-09-02T04:30:28.082Z,18.90
2022-09-02T04:32:57.012Z,16.70
2022-09-02T04:35:26.048Z,19.83
2022-09-02T04:37:55.097Z,14.10
2022-09-02T04:40:25.043Z,11.27
2022-09-02T04:42:55.757Z,17.23
2022-09-02T04:45:29.911Z,13.20
2022-09-02T04:48:00.223Z,17.20
2022-09-02T04:50:29.168Z,13.57
2022-09-02T04:53:01.452Z,18.20
2022-09-02T04:55:33.153Z,22.90
2022-09-02T04:58:02.192Z,14.10
2022-09-02T05:00:32.498Z,19.30
2022-09-02T05:03:01.672Z,19.80
2022-09-02T05:05:32.605Z,24.33
2022-09-02T05:08:04.807Z,19.50
2022-09-02T05:10:34.153Z,19.00
2022-09-02T05:13:03.496Z,19.50
2022-09-02T05:15:33.877Z,18.43
2022-09-02T05:18:03.992Z,21.97
2022-09-02T05:20:34.468Z,20.97
2022-09-02T05:23:03.451Z,26.77
2022-09-02T05:25:32.457Z,17.63
2022-09-02T05:28:02.150Z,21.17
2022-09-02T05:30:31.993Z,13.33
2022-09-02T05:33:03.273Z,29.13
2022-09-02T05:35:34.413Z,18.90
2022-09-02T05:38:07.091Z,19.03
2022-09-02T05:40:38.249Z,27.83
2022-09-02T05:43:10.579Z,22.03
2022-09-02T05:45:41.000Z,19.73
2022-09-02T05:48:25.256Z,12.83
2022-09-02T05:50:54.902Z,13.50
2022-09-02T05:53:28.049Z,19.93
2022-09-02T05:55:57.448Z,18.10
2022-09-02T05:58:26.825Z,19.83
2022-09-02T06:00:56.540Z,28.93
2022-09-02T06:03:27.337Z,23.00
2022-09-02T06:05:57.411Z,17.53
2022-09-02T06:08:28.995Z,16.00
2022-09-02T06:10:57.956Z,18.30
2022-09-02T06:13:28.989Z,22.30
2022-09-02T06:15:59.247Z,14.53
2022-09-02T06:18:34.083Z,13.20
2022-09-02T06:21:05.533Z,14.40
2022-09-02T06:23:40.635Z,23.63
2022-09-02T06:26:13.599Z,19.00
2022-09-02T06:28:42.807Z,29.63
2022-09-02T06:31:15.329Z,25.30
2022-09-02T06:33:47.435Z,23.90
2022-09-02T06:36:20.318Z,22.10
2022-09-02T06:38:52.096Z,21.40
2022-09-02T06:41:24.644Z,19.17
2022-09-02T06:43:57.817Z,18.17
2022-09-02T06:46:30.009Z,19.27
2022-09-02T06:49:03.980Z,25.17
2022-09-02T06:51:35.117Z,16.60
2022-09-02T06:54:07.335Z,13.13
2022-09-02T06:56:39.911Z,22.07
2022-09-02T06:59:10.139Z,27.17
2022-09-02T07:01:51.339Z,24.00
2022-09-02T07:04:42.478Z,29.67
2022-09-02T07:07:16.167Z,24.30
2022-09-02T07:09:52.689Z,28.23
2022-09-02T07:12:22.086Z,26.67
2022-09-02T07:14:56.463Z,20.20
2022-09-02T07:17:39.420Z,24.53
2022-09-02T07:20:17.856Z,18.23
2022-09-02T07:25:28.733Z,28.67
2022-09-02T07:27:57.913Z,32.07
2022-09-02T07:30:27.907Z,20.60
2022-09-02T07:33:06.568Z,28.83
2022-09-02T07:35:38.797Z,21.80
2022-09-02T07:38:10.287Z,21.07
2022-09-02T07:40:41.328Z,14.23
2022-09-02T07:43:12.402Z,20.93
2022-09-02T07:45:44.049Z,20.73
2022-09-02T07:48:15.356Z,22.30
2022-09-02T07:50:47.569Z,22.83
2022-09-02T07:53:20.496Z,13.50
2022-09-02T07:55:50.775Z,18.80
2022-09-02T07:58:21.543Z,24.03
2022-09-02T08:00:53.040Z,17.07
2022-09-02T08:03:23.179Z,25.20
2022-09-02T08:05:57.705Z,22.23
2022-09-02T08:08:28.508Z,21.20
2022-09-02T08:10:58.174Z,23.97
2022-09-02T08:13:28.042Z,24.47
2022-09-02T08:15:57.585Z,27.50
2022-09-02T08:18:26.979Z,15.03
2022-09-02T08:20:57.854Z,28.23
2022-09-02T08:23:36.799Z,17.27
2022-09-02T08:26:07.260Z,17.73
2022-09-02T08:28:36.552Z,23.33
2022-09-02T08:31:09.088Z,23.67
2022-09-02T08:33:38.221Z,25.77
2022-09-02T08:36:12.017Z,37.40
2022-09-02T08:38:41.361Z,19.90
2022-09-02T08:41:23.270Z,24.10
2022-09-02T08:43:54.278Z,19.03
2022-09-02T08:46:26.617Z,24.60
2022-09-02T08:48:59.990Z,22.13
2022-09-02T08:51:37.360Z,33.90
2022-09-02T08:54:11.133Z,25.40
2022-09-02T08:56:41.811Z,24.67
2022-09-02T08:59:13.272Z,22.60
2022-09-02T09:01:49.595Z,22.60
2022-09-02T09:04:22.850Z,21.23
2022-09-02T09:07:12.703Z,41.27
2022-09-02T09:09:56.782Z,19.53
2022-09-02T09:12:34.629Z,22.10
2022-09-02T09:15:10.567Z,25.63
2022-09-02T09:17:46.489Z,27.50
2022-09-02T09:20:20.705Z,22.03
2022-09-02T09:22:53.023Z,29.63
2022-09-02T09:25:22.204Z,22.33
2022-09-02T09:27:51.079Z,20.90
2022-09-02T09:30:20.257Z,35.63
2022-09-02T09:32:54.915Z,21.93
2022-09-02T09:35:24.632Z,25.40
2022-09-02T09:37:56.276Z,18.13
2022-09-02T09:40:32.020Z,21.53
2022-09-02T09:43:14.552Z,21.93
2022-09-02T09:45:46.288Z,18.57
2022-09-02T09:48:27.788Z,26.37
2022-09-02T09:51:19.790Z,23.40
2022-09-02T09:53:50.152Z,25.70
2022-09-02T09:56:36.978Z,21.87
2022-09-02T09:59:10.610Z,18.20
2022-09-02T10:01:39.570Z,26.60
2022-09-02T10:04:42.238Z,19.10
2022-09-02T10:07:01.361Z,20.33
2022-09-02T10:09:36.397Z,20.73
2022-09-02T10:12:08.189Z,20.10
2022-09-02T10:14:43.174Z,29.70
2022-09-02T10:17:26.236Z,23.20
2022-09-02T10:20:04.895Z,15.17
2022-09-02T10:23:12.918Z,20.30
2022-09-02T10:25:55.163Z,23.40
2022-09-02T10:28:38.480Z,23.83
2022-09-02T10:31:13.358Z,15.00
2022-09-02T10:33:52.426Z,26.17
2022-09-02T10:36:31.232Z,15.23
2022-09-02T10:39:08.139Z,25.70
2022-09-02T10:44:29.787Z,21.43
2022-09-02T10:47:02.645Z,17.17
2022-09-02T10:49:52.300Z,13.97
2022-09-02T10:52:39.750Z,19.07
2022-09-02T10:55:17.269Z,19.87
2022-09-02T10:57:53.303Z,20.30
2022-09-02T11:00:24.730Z,20.57
2022-09-02T11:02:59.244Z,14.83
2022-09-02T11:05:33.670Z,17.73
2022-09-02T11:08:09.986Z,17.47
2022-09-02T11:10:43.363Z,23.40
2022-09-02T11:13:20.233Z,17.27
2022-09-02T11:15:53.603Z,14.83
2022-09-02T11:18:26.649Z,13.10
2022-09-02T11:21:04.865Z,12.27
2022-09-02T11:23:40.037Z,15.00
2022-09-02T11:26:15.065Z,18.57
2022-09-02T11:28:54.396Z,14.30
2022-09-02T11:31:29.196Z,15.03
2022-09-02T11:36:40.344Z,19.47
2022-09-02T11:39:21.724Z,21.87
2022-09-02T11:42:24.201Z,25.20
2022-09-02T11:45:19.457Z,28.57
2022-09-02T11:48:06.602Z,16.73
2022-09-02T11:51:02.912Z,28.43
2022-09-02T11:53:37.155Z,18.27
2022-09-02T11:56:12.494Z,24.43
2022-09-02T11:58:47.452Z,19.47
2022-09-02T12:01:35.550Z,18.80
2022-09-02T12:04:48.566Z,19.53
2022-09-02T12:07:32.842Z,19.00
2022-09-02T12:10:06.400Z,13.70
2022-09-02T12:13:08.405Z,17.70
2022-09-02T12:15:40.752Z,16.27
2022-09-02T12:18:31.219Z,12.10
2022-09-02T12:21:18.230Z,22.27
2022-09-02T12:24:11.038Z,19.13
2022-09-02T12:27:09.275Z,23.73
2022-09-02T12:29:39.772Z,18.33
2022-09-02T12:32:10.575Z,18.40
2022-09-02T12:34:57.995Z,26.10
2022-09-02T12:37:55.661Z,14.70
2022-09-02T12:40:31.362Z,26.27
2022-09-02T12:43:07.835Z,21.10
2022-09-02T12:45:45.753Z,20.80
2022-09-02T12:48:18.486Z,18.07
2022-09-02T12:50:58.101Z,19.03
2022-09-02T12:53:33.852Z,20.07
2022-09-02T12:56:06.525Z,19.63
2022-09-02T12:58:40.694Z,18.50
2022-09-02T13:01:19.700Z,20.37
2022-09-02T13:04:18.526Z,20.07
2022-09-02T13:07:20.037Z,18.43
2022-09-02T13:10:28.603Z,20.07
2022-09-02T13:13:35.329Z,21.83
2022-09-02T13:16:19.018Z,24.60
2022-09-02T13:19:21.390Z,18.67
2022-09-02T13:22:06.436Z,22.00
2022-09-02T13:25:02.812Z,17.83
2022-09-02T13:28:15.286Z,16.33
2022-09-02T13:31:06.116Z,27.07
2022-09-02T13:33:38.361Z,16.33
2022-09-02T13:36:11.083Z,23.23
2022-09-02T13:38:40.697Z,19.10
2022-09-02T13:41:09.794Z,30.77
2022-09-02T13:43:39.938Z,27.73
2022-09-02T13:46:10.634Z,24.50
2022-09-02T13:48:41.723Z,23.23
2022-09-02T13:51:15.085Z,27.77
2022-09-02T13:56:37.465Z,22.47
2022-09-02T13:59:08.038Z,29.60
2022-09-02T14:01:40.137Z,20.33
2022-09-02T14:04:15.826Z,18.57
2022-09-02T14:06:48.871Z,22.70
2022-09-02T14:09:23.762Z,16.87
2022-09-02T14:11:54.037Z,22.83
2022-09-02T14:14:26.760Z,30.60
2022-09-02T14:17:18.854Z,19.97
2022-09-02T14:19:48.860Z,27.23
2022-09-02T14:22:28.497Z,30.67
2022-09-02T14:24:58.359Z,25.00
2022-09-02T14:27:27.597Z,23.20
2022-09-02T14:29:59.519Z,23.63
2022-09-02T14:32:29.810Z,20.37
2022-09-02T14:55:55.389Z,20.67
2022-09-02T14:58:27.626Z,17.70
2022-09-02T15:01:00.201Z,16.83
2022-09-02T15:03:30.592Z,19.13
2022-09-02T15:05:59.698Z,23.60
2022-09-02T15:08:28.610Z,30.83
2022-09-02T15:11:01.980Z,29.63
2022-09-02T15:13:34.108Z,32.30
2022-09-02T15:16:04.169Z,20.53
2022-09-02T15:18:33.274Z,21.17
2022-09-02T15:21:03.391Z,26.50
2022-09-02T15:23:34.762Z,19.47
2022-09-02T15:26:06.927Z,18.33
2022-09-02T15:28:36.104Z,29.53
2022-09-02T15:31:05.038Z,25.27
2022-09-02T15:33:34.236Z,26.40
2022-09-02T15:36:10.538Z,29.83
2022-09-02T15:38:41.328Z,26.23
2022-09-02T15:41:17.425Z,35.50
2022-09-02T15:43:48.375Z,33.33
2022-09-02T15:46:24.250Z,29.80
2022-09-02T15:48:56.764Z,32.50
2022-09-02T15:51:27.972Z,29.67
2022-09-02T15:53:57.555Z,35.60
2022-09-02T15:56:29.749Z,37.90
2022-09-02T15:59:01.977Z,30.27
2022-09-02T16:01:32.323Z,25.57
2022-09-02T16:04:03.228Z,42.83
2022-09-02T16:06:33.554Z,31.77
2022-09-02T16:09:02.704Z,43.73
2022-09-02T16:11:33.496Z,33.50
2022-09-02T16:14:02.583Z,24.83
2022-09-02T16:16:32.499Z,31.83
2022-09-02T16:19:02.149Z,22.20
2022-09-02T16:21:31.502Z,29.80
2022-09-02T16:24:00.597Z,27.97
2022-09-02T16:26:31.326Z,36.17
2022-09-02T16:29:03.794Z,30.30
2022-09-02T16:31:35.309Z,28.63
2022-09-02T16:34:06.693Z,25.27
2022-09-02T16:36:38.253Z,35.83
2022-09-02T16:39:08.138Z,28.03
2022-09-02T16:41:38.591Z,28.20
2022-09-02T16:44:11.391Z,27.23
2022-09-02T17:22:53.712Z,34.47
2022-09-02T17:25:23.256Z,30.27
2022-09-02T17:27:52.226Z,27.47
2022-09-02T17:30:24.010Z,29.83
2022-09-02T17:32:56.297Z,17.50
2022-09-02T17:35:26.081Z,22.93
2022-09-02T17:37:56.945Z,23.33
2022-09-02T17:40:43.688Z,20.97
2022-09-02T17:43:12.688Z,13.73
2022-09-02T17:45:41.813Z,7.83
2022-09-02T17:48:34.706Z,11.83
2022-09-02T17:51:01.096Z,10.83
2022-09-02T17:53:33.035Z,9.97
2022-09-02T17:56:21.942Z,12.80
2022-09-02T17:59:01.134Z,9.17
2022-09-02T18:01:32.894Z,12.10
2022-09-02T18:04:11.357Z,13.80
2022-09-02T18:06:45.521Z,12.37
2022-09-02T18:09:20.233Z,15.57
2022-09-02T18:11:54.974Z,20.20
2022-09-02T18:14:36.032Z,23.97
2022-09-02T18:17:18.248Z,20.93
2022-09-02T18:19:58.062Z,16.90
2022-09-02T18:22:54.315Z,23.17
2022-09-02T18:25:37.554Z,18.17
2022-09-02T18:28:15.866Z,15.93
2022-09-02T18:30:50.688Z,22.17
2022-09-02T18:34:01.132Z,12.47
2022-09-02T18:36:39.334Z,15.00
2022-09-02T18:39:34.805Z,9.77
2022-09-02T18:42:17.792Z,11.40
2022-09-02T18:44:59.838Z,13.03
2022-09-02T18:47:33.587Z,5.90
2022-09-02T18:50:06.897Z,14.27
2022-09-02T18:52:38.546Z,12.00
2022-09-02T18:55:13.758Z,7.27
2022-09-02T18:57:51.178Z,10.70
2022-09-02T19:00:22.409Z,9.93
2022-09-02T19:02:58.272Z,11.20
2022-09-02T19:05:29.441Z,13.37
2022-09-02T19:08:20.597Z,12.23
2022-09-02T19:10:50.118Z,11.63
2022-09-02T19:13:21.138Z,7.97
2022-09-02T19:15:50.492Z,5.40
2022-09-02T19:18:25.916Z,9.57
2022-09-02T19:20:56.236Z,4.40
2022-09-02T19:23:26.465Z,8.17
2022-09-02T19:25:55.666Z,7.97
2022-09-02T19:28:28.097Z,9.73
2022-09-02T19:31:02.717Z,12.80
2022-09-02T19:33:34.843Z,9.23
2022-09-02T19:36:04.190Z,6.40
2022-09-02T19:38:33.702Z,6.70
2022-09-02T19:41:02.548Z,7.30
2022-09-02T19:43:32.903Z,8.17
2022-09-02T19:46:02.496Z,10.03
2022-09-02T19:48:31.933Z,7.80
2022-09-02T19:51:01.514Z,5.33
2022-09-02T19:53:32.045Z,9.23
2022-09-02T19:56:01.509Z,11.33
2022-09-02T19:58:30.636Z,9.20
2022-09-02T20:01:01.398Z,12.27
2022-09-02T20:03:30.516Z,8.57
2022-09-02T20:05:59.969Z,8.00
2022-09-02T20:08:31.325Z,6.33
2022-09-02T20:11:02.567Z,7.90
2022-09-02T20:13:40.160Z,5.30
2022-09-02T20:16:20.561Z,4.20
2022-09-02T20:18:50.198Z,6.37
2022-09-02T20:21:23.555Z,9.90
2022-09-02T20:23:54.042Z,8.17
2022-09-02T20:26:35.231Z,7.27
2022-09-02T20:29:19.225Z,6.90
2022-09-02T20:32:03.791Z,12.17
2022-09-02T20:34:46.861Z,4.63
2022-09-02T20:37:27.555Z,6.70
2022-09-02T20:40:12.294Z,10.07
2022-09-02T20:43:08.099Z,11.40
2022-09-02T20:45:40.468Z,8.83
2022-09-02T20:48:27.649Z,4.90
2022-09-02T20:51:05.181Z,7.40
2022-09-02T20:54:01.081Z,7.30
2022-09-02T20:56:39.361Z,13.57
2022-09-02T20:59:17.376Z,7.40
2022-09-02T21:01:48.621Z,10.40
2022-09-02T21:04:31.935Z,12.10
2022-09-02T21:07:06.257Z,11.77
2022-09-02T21:09:42.802Z,10.43
2022-09-02T21:12:32.414Z,11.03
2022-09-02T21:15:08.422Z,10.43
2022-09-02T21:17:47.787Z,9.10
2022-09-02T21:20:25.591Z,8.80
2022-09-02T21:22:59.361Z,13.43
2022-09-02T21:25:36.169Z,11.13
2022-09-02T21:28:09.284Z,10.50
2022-09-02T21:30:42.191Z,9.67
2022-09-02T21:33:13.361Z,8.80
2022-09-02T21:35:47.298Z,10.20
2022-09-02T21:38:20.844Z,10.07
2022-09-02T21:41:07.108Z,11.20
2022-09-02T21:43:51.749Z,7.00
2022-09-02T21:46:32.557Z,12.40
2022-09-02T21:49:07.631Z,11.63
2022-09-02T21:51:47.099Z,11.73
2022-09-02T21:54:33.968Z,12.93
2022-09-02T21:57:16.623Z,15.50
2022-09-02T21:59:59.185Z,14.07
2022-09-02T22:02:40.374Z,7.80
2022-09-02T22:05:18.416Z,9.77
2022-09-02T22:07:55.649Z,17.70
2022-09-02T22:10:31.965Z,16.23
2022-09-02T22:13:03.683Z,12.50
2022-09-02T22:15:56.702Z,7.33
2022-09-02T22:18:39.441Z,9.97
2022-09-02T22:21:18.473Z,9.47
2022-09-02T22:23:49.598Z,8.50
2022-09-02T22:26:29.458Z,11.23
2022-09-02T22:29:04.104Z,8.50
2022-09-02T22:31:39.352Z,21.47
2022-09-02T22:34:10.757Z,9.30
2022-09-02T22:36:52.308Z,6.10
2022-09-02T22:39:32.367Z,8.93
2022-09-02T22:42:11.508Z,8.00
2022-09-02T22:45:02.904Z,14.10
2022-09-02T22:47:51.726Z,13.67
2022-09-02T22:50:42.771Z,17.30
2022-09-02T22:53:13.150Z,10.87
2022-09-02T22:55:58.917Z,9.93
2022-09-02T22:59:09.804Z,10.27
2022-09-02T23:01:51.819Z,11.50
2022-09-02T23:04:40.875Z,12.73
2022-09-02T23:07:13.486Z,12.00
2022-09-02T23:09:43.862Z,35.10
2022-09-02T23:12:25.240Z,9.37
2022-09-02T23:15:04.436Z,7.97
2022-09-02T23:17:41.661Z,9.07
2022-09-02T23:20:21.364Z,12.53
2022-09-02T23:23:05.515Z,17.17
2022-09-02T23:25:57.091Z,10.93
2022-09-02T23:28:34.252Z,9.40
2022-09-02T23:31:12.755Z,10.90
2022-09-02T23:33:55.231Z,14.07
2022-09-02T23:36:40.276Z,8.23
2022-09-02T23:39:31.793Z,10.20
2022-09-02T23:42:02.611Z,9.83
2022-09-02T23:44:33.243Z,10.93
2022-09-02T23:47:16.615Z,18.40
2022-09-02T23:49:57.765Z,12.00
2022-09-02T23:52:32.866Z,11.43
2022-09-02T23:55:10.110Z,12.37
2022-09-02T23:58:05.258Z,14.77
